Latest Weather Observations for Camooweal

IDQ60801

Issued at 8:32 pm EST Tuesday 17 January 2017 (issued every 30 minutes, with the page automatically refreshed every 10 minutes)

About weather observations | Map of weather stations | Latest weather observations for QLD | Other Formats
Station Details ID: 037010 Name: CAMOOWEAL TOWNSHIP Lat: -19.92 Lon: 138.12 Height: 231.2 m
Data from the previous 72 hours. | See also: Recent months at Camooweal
Date/Time
EST
Temp
°C
App
Temp
°C
Dew
Point
°C
Rel
Hum
%
Delta-T
°C
Wind Press
QNH
hPa
Press
MSL
hPa
Rain since
9am
mm
Dir  Spd
km/h
Gust
km/h
Spd
kts
Gust
kts
17/08:00pm 26.8 29.4 23.9 84 2.0 NE 17 24 9 13 1009.6 1007.8 1.0
17/07:30pm 27.5 29.4 23.7 80 2.6 NNE 20 28 11 15 1009.2 1007.4 1.0
17/07:00pm 28.3 31.1 23.7 76 3.2 NE 15 22 8 12 1008.8 1007.0 1.0
17/06:30pm 28.4 30.5 23.8 76 3.2 NE 19 28 10 15 1008.8 1007.0 1.0
17/06:00pm 27.6 29.8 24.2 82 2.4 NE 20 30 11 16 1008.7 1006.9 1.0
17/05:30pm 26.9 28.6 24.0 84 2.0 NE 22 32 12 17 1008.9 1007.1 1.0
17/05:00pm 27.5 29.5 23.9 81 2.5 NNE 20 30 11 16 1008.6 1006.8 1.0
17/04:30pm 27.4 29.9 24.7 85 1.9 NNE 20 33 11 18 1008.7 1006.9 1.0
17/04:00pm 26.5 28.8 25.1 92 1.0 NNE 22 33 12 18 1008.7 1006.9 1.0
17/03:30pm 25.7 27.9 24.3 92 1.0 NE 20 30 11 16 1008.8 1007.0 0.6
17/03:00pm 26.4 26.8 23.7 85 1.9 NE 28 37 15 20 1009.0 1007.2 0.6
17/02:30pm 30.8 31.6 23.2 64 5.3 NNE 24 35 13 19 1008.9 1007.1 0.6
17/02:00pm 29.3 30.4 24.4 75 3.4 NNE 26 33 14 18 1008.9 1007.1 0.6
17/01:30pm 28.7 32.2 25.5 83 2.3 NNE 17 22 9 12 1009.2 1007.4 0.6
17/01:01pm 25.7 26.7 24.7 94 0.7 NNE 28 46 15 25 1009.8 1008.0 0.6
17/01:00pm 25.5 25.7 24.1 92 1.0 N 30 46 16 25 1009.8 1008.0 0.6
17/12:48pm 26.4 26.3 22.9 81 2.4 NNE 28 50 15 27 1009.7 1007.9 0.2
17/12:30pm 31.5 33.5 23.9 64 5.3 N 20 30 11 16 1009.3 1007.5 0.0
17/12:00pm 30.4 30.8 21.8 60 5.9 NNE 22 37 12 20 1009.7 1007.9 0.0
17/11:30am 30.6 31.9 24.0 68 4.6 N 24 37 13 20 1010.0 1008.2 0.0
17/11:00am 29.4 30.2 23.1 69 4.4 NNE 24 35 13 19 1010.4 1008.6 0.0
17/10:30am 28.1 29.7 23.2 74 3.4 N 20 32 11 17 1010.7 1008.9 0.0
17/10:00am 28.4 29.7 23.3 74 3.5 NNE 22 32 12 17 1010.5 1008.8 0.0
17/09:30am 27.2 28.2 22.8 77 3.0 NNE 22 32 12 17 1010.7 1008.9 0.0
17/09:00am 27.5 28.0 23.3 78 2.9 NNE 26 33 14 18 1010.3 1008.5 1.6
17/08:30am 26.8 28.1 23.3 81 2.4 NNE 22 33 12 18 1010.1 1008.3 1.6
17/08:00am 25.7 27.2 23.0 85 1.8 NNE 20 30 11 16 1010.0 1008.2 1.6
17/07:30am 24.5 26.1 22.9 91 1.1 NNE 19 26 10 14 1009.9 1008.1 1.6
17/07:00am 23.8 24.9 23.1 96 0.5 NNE 22 30 12 16 1009.5 1007.7 1.6
17/06:30am 24.6 26.0 22.8 90 1.2 NNE 20 30 11 16 1009.0 1007.2 1.6
17/06:00am 25.0 26.8 23.2 90 1.2 NE 19 28 10 15 1008.5 1006.7 1.6
17/05:30am 24.9 27.5 23.3 91 1.1 NNE 15 24 8 13 1008.0 1006.2 1.6
17/05:00am 24.8 27.0 23.2 91 1.1 NE 17 24 9 13 1007.4 1005.6 1.6
17/04:30am 24.7 27.0 23.5 93 0.8 NNE 17 24 9 13 1007.1 1005.3 1.6
17/04:00am 24.7 27.0 23.5 93 0.8 NNE 17 26 9 14 1007.0 1005.2 1.6
17/03:30am 24.6 27.0 23.6 94 0.7 NE 17 26 9 14 1006.7 1004.9 1.6
17/03:00am 24.6 26.3 23.4 93 0.8 NE 20 28 11 15 1006.9 1005.1 1.6
17/02:30am 24.7 26.5 23.3 92 1.0 NE 19 26 10 14 1007.1 1005.3 1.6
17/02:00am 24.8 26.7 23.4 92 1.0 NE 19 28 10 15 1007.3 1005.5 1.6
17/01:30am 24.8 26.6 23.2 91 1.1 NE 19 28 10 15 1007.6 1005.8 1.6
17/01:00am 25.0 26.7 23.4 91 1.1 NE 20 28 11 15 1007.9 1006.1 1.6
17/12:30am 25.1 26.9 23.3 90 1.2 NE 19 28 10 15 1008.1 1006.3 1.6
17/12:00am 25.1 27.3 23.3 90 1.2 NE 17 28 9 15 1008.4 1006.6 1.6
 
Date/Time
EST
Temp
°C
App
Temp
°C
Dew
Point
°C
Rel
Hum
%
Delta-T
°C
Wind Press
QNH
hPa
Press
MSL
hPa
Rain since
9am
mm
Dir  Spd
km/h
Gust
km/h
Spd
kts
Gust
kts
16/11:30pm 25.3 27.0 23.4 89 1.3 NE 20 30 11 16 1008.6 1006.8 1.6
16/11:00pm 25.2 27.0 23.3 89 1.3 NE 19 28 10 15 1008.5 1006.7 1.6
16/10:30pm 25.1 27.3 23.2 89 1.3 NE 17 24 9 13 1008.4 1006.6 1.6
16/10:00pm 25.4 26.9 23.1 87 1.6 NE 20 30 11 16 1008.0 1006.2 1.6
16/09:30pm 25.6 26.8 22.5 83 2.1 NE 20 30 11 16 1007.5 1005.7 1.6
16/09:00pm 25.8 27.3 22.7 83 2.1 NE 19 28 10 15 1007.3 1005.5 1.6
16/08:30pm 26.1 27.5 22.8 82 2.3 NE 20 30 11 16 1007.0 1005.2 1.6
16/08:00pm 26.5 28.1 22.8 80 2.5 NE 19 26 10 14 1006.9 1005.1 1.6
16/07:30pm 27.0 28.1 22.4 76 3.1 NE 20 32 11 17 1006.4 1004.5 1.6
16/07:00pm 27.9 28.3 22.4 72 3.8 NE 24 35 13 19 1005.8 1004.0 1.6
16/06:30pm 28.9 29.3 23.1 71 4.0 NE 26 35 14 19 1005.5 1003.7 1.6
16/06:00pm 29.6 30.4 23.8 71 4.1 NE 26 33 14 18 1004.8 1003.0 1.6
16/05:30pm 30.2 30.6 22.4 63 5.3 NE 24 39 13 21 1004.8 1003.0 1.6
16/05:00pm 31.1 33.3 24.2 66 4.9 ENE 20 32 11 17 1004.7 1002.9 1.6
16/04:30pm 30.0 31.1 22.4 63 5.2 NE 20 28 11 15 1004.7 1002.9 1.6
16/04:00pm 30.7 31.2 22.0 59 6.0 NE 22 33 12 18 1004.8 1003.0 1.6
16/03:30pm 31.3 33.5 24.2 66 5.0 NE 20 30 11 16 1005.2 1003.4 1.6
16/03:00pm 30.6 32.8 24.0 68 4.6 NE 19 28 10 15 1005.5 1003.7 1.6
16/02:30pm 29.6 31.1 23.1 68 4.5 NE 20 32 11 17 1005.9 1004.1 1.6
16/02:00pm 29.0 30.1 24.3 76 3.3 NE 26 43 14 23 1006.4 1004.5 1.6
16/01:30pm 26.2 28.0 23.5 85 1.9 NE 20 43 11 23 1006.7 1004.9 1.6
16/01:00pm 30.4 32.5 24.1 69 4.4 NE 20 30 11 16 1006.8 1005.0 0.0
16/12:30pm 30.1 32.2 23.8 69 4.4 NE 19 30 10 16 1007.0 1005.2 0.0
16/12:00pm 29.6 31.2 23.8 71 4.0 NE 22 35 12 19 1007.4 1005.6 0.0
16/11:30am 28.7 30.1 23.6 74 3.5 NE 22 35 12 19 1007.7 1005.9 0.0
16/11:00am 28.3 30.0 23.4 75 3.4 NNE 20 37 11 20 1007.7 1005.9 0.0
16/10:30am 28.6 30.2 23.9 75 3.3 NE 22 32 12 17 1007.5 1005.7 0.0
16/10:00am 26.7 27.8 23.0 80 2.5 NE 22 32 12 17 1007.5 1005.7 0.0
16/09:30am 26.5 27.3 23.2 82 2.3 NE 24 33 13 18 1007.5 1005.7 0.0
16/09:00am 25.5 26.8 23.4 88 1.4 NNE 22 35 12 19 1007.3 1005.5 64.2
16/08:30am 25.3 27.2 23.7 91 1.1 NNE 20 32 11 17 1007.3 1005.5 64.2
16/08:00am 24.3 25.8 23.1 93 0.8 NE 20 32 11 17 1007.2 1005.4 64.2
16/07:30am 23.8 25.4 23.3 97 0.3 NE 20 30 11 16 1007.0 1005.2 64.2
16/07:00am 23.1 25.8 22.9 99 0.1 E 13 19 7 10 1006.6 1004.7 64.2
16/06:30am 22.8 25.4 22.6 99 0.1 ENE 13 20 7 11 1006.2 1004.3 64.2
16/06:00am 22.7 25.3 22.7 100 0.0 ESE 13 15 7 8 1006.0 1004.2 64.2
16/05:30am 22.8 25.5 22.8 100 0.0 ESE 13 17 7 9 1006.0 1004.2 64.2
16/05:00am 22.9 25.6 22.9 100 0.0 E 13 19 7 10 1006.0 1004.2 64.2
16/04:30am 23.0 26.2 23.0 100 0.0 ESE 11 17 6 9 1005.9 1004.1 64.2
16/04:00am 23.0 26.2 23.0 100 0.0 SE 11 15 6 8 1005.7 1003.9 64.2
16/03:30am 23.0 25.8 23.0 100 0.0 SE 13 19 7 10 1005.9 1004.1 64.2
16/03:00am 23.0 26.9 23.0 100 0.0 ESE 7 11 4 6 1005.8 1004.0 64.2
16/02:30am 22.9 26.7 22.7 99 0.1 E 7 9 4 5 1006.5 1004.6 64.2
16/02:00am 23.0 26.8 22.8 99 0.1 SE 7 9 4 5 1006.7 1004.9 64.2
16/01:30am 23.2 27.1 23.0 99 0.1 ENE 7 11 4 6 1006.7 1004.9 64.2
16/01:00am 23.1 27.9 22.9 99 0.1 NE 2 6 1 3 1007.1 1005.3 64.2
16/12:30am 23.3 28.6 23.0 98 0.2 CALM 0 0 0 0 1007.4 1005.6 64.2
16/12:00am 23.3 28.6 23.0 98 0.2 CALM 0 0 0 0 1007.4 1005.6 64.2
 
Date/Time
EST
Temp
°C
App
Temp
°C
Dew
Point
°C
Rel
Hum
%
Delta-T
°C
Wind Press
QNH
hPa
Press
MSL
hPa
Rain since
9am
mm
Dir  Spd
km/h
Gust
km/h
Spd
kts
Gust
kts
15/11:30pm 23.4 27.5 22.9 97 0.3 ENE 6 7 3 4 1007.6 1005.8 64.2
15/11:00pm 23.6 27.3 23.3 98 0.2 E 9 13 5 7 1007.5 1005.7 64.2
15/10:30pm 23.6 27.7 23.3 98 0.2 SE 7 9 4 5 1007.7 1005.9 64.2
15/10:00pm 23.7 27.9 23.5 99 0.1 SE 7 9 4 5 1007.8 1006.0 64.2
15/09:30pm 23.7 28.1 23.5 99 0.1 SE 6 7 3 4 1007.6 1005.8 64.2
15/09:00pm 23.7 28.4 23.4 98 0.2 ESE 4 7 2 4 1007.4 1005.6 64.2
15/08:30pm 23.7 29.1 23.2 97 0.3 CALM 0 4 0 2 1006.9 1005.1 64.2
15/08:00pm 23.8 28.1 23.3 97 0.3 NNE 6 9 3 5 1006.7 1004.9 64.2
15/07:30pm 24.0 28.1 23.3 96 0.5 NE 7 9 4 5 1006.7 1004.9 64.2
15/07:00pm 24.1 27.8 23.2 95 0.6 NNE 9 13 5 7 1006.3 1004.4 64.2
15/06:30pm 24.1 26.6 23.2 95 0.6 NE 15 20 8 11 1006.4 1004.5 64.2
15/06:00pm 24.0 26.6 23.3 96 0.5 NNE 15 24 8 13 1006.7 1004.9 64.2
15/05:30pm 23.8 25.6 23.3 97 0.3 NE 19 24 10 13 1006.7 1004.9 64.2
15/05:00pm 23.8 25.7 23.5 98 0.2 NE 19 28 10 15 1007.0 1005.2 63.8
15/04:30pm 23.8 27.4 23.8 100 0.0 NNE 11 15 6 8 1006.8 1005.0 63.8
15/04:00pm 24.1 27.8 23.9 99 0.1 E 11 20 6 11 1007.1 1005.3 55.6
15/03:30pm 24.0 28.7 24.0 100 0.0 E 6 11 3 6 1007.4 1005.6 51.8
15/03:00pm 24.0 29.5 24.0 100 0.0 W 2 11 1 6 1007.6 1005.8 44.8
15/02:30pm 23.8 26.9 23.6 99 0.1 W 13 20 7 11 1007.5 1005.7 39.6
15/02:00pm 24.7 29.1 24.4 98 0.2 NW 9 15 5 8 1007.9 1006.1 33.2
15/01:30pm 25.3 30.8 25.3 100 0.0 NNW 6 9 3 5 1008.1 1006.3 32.2
15/01:00pm 24.9 30.0 24.9 100 0.0 W 7 11 4 6 1008.5 1006.7 30.4
15/12:30pm 25.0 29.7 25.0 100 0.0 SE 9 22 5 12 1009.0 1007.2 27.8
15/12:00pm 26.4 30.1 24.6 90 1.3 WNW 13 24 7 13 1008.8 1007.0 0.4
15/11:30am 26.2 29.2 24.6 91 1.1 NW 17 28 9 15 1008.6 1006.8 0.0
15/11:00am 27.2 29.6 24.3 84 2.0 NW 19 28 10 15 1008.9 1007.1 0.0
15/10:30am 26.3 28.4 23.8 86 1.7 NW 19 26 10 14 1009.5 1007.7 0.0
15/10:00am 25.8 28.7 23.8 89 1.4 NW 15 22 8 12 1009.8 1008.0 0.0
15/09:30am 25.4 28.7 23.8 91 1.1 NW 13 20 7 11 1009.7 1007.9 0.0
15/09:00am 25.3 28.6 23.9 92 1.0 NW 13 20 7 11 1009.9 1008.1 3.6
15/08:30am 24.8 27.3 23.8 94 0.7 NW 17 24 9 13 1009.5 1007.7 3.6
15/08:00am 24.1 25.2 23.1 94 0.7 NNW 22 32 12 17 1009.6 1007.8 3.6
15/07:30am 24.2 25.3 23.7 97 0.3 N 24 33 13 18 1009.7 1007.9 3.6
15/07:00am 24.7 26.6 23.7 94 0.7 N 20 37 11 20 1009.7 1007.9 3.6
15/06:30am 25.6 29.5 24.9 96 0.5 ESE 13 20 7 11 1009.1 1007.3 3.6
15/06:00am 26.1 29.5 24.7 92 1.0 W 15 26 8 14 1008.7 1006.9 1.2
15/05:30am 26.7 30.6 24.9 90 1.3 NNW 13 17 7 9 1008.0 1006.2 0.6
15/05:00am 26.6 30.6 25.0 91 1.1 NNW 13 19 7 10 1008.1 1006.3 0.6
15/04:30am 27.2 32.3 24.7 86 1.8 NNW 6 7 3 4 1007.8 1006.0 0.0
15/04:00am 27.3 32.2 24.6 85 1.9 N 7 9 4 5 1007.8 1006.0 0.0
15/03:30am 28.0 31.6 24.4 81 2.5 NNE 13 20 7 11 1007.5 1005.7 0.0
15/03:00am 28.0 33.3 25.2 85 2.0 NNW 7 11 4 6 1007.4 1005.6 0.0
15/02:30am 27.9 33.3 25.1 85 2.0 WNW 6 9 3 5 1007.5 1005.7 0.0
15/02:00am 28.2 33.2 24.8 82 2.4 WNW 7 9 4 5 1007.6 1005.8 0.0
15/01:30am 28.4 33.4 24.8 81 2.5 W 7 9 4 5 1008.2 1006.4 0.0
15/01:00am 28.4 33.4 24.8 81 2.5 WNW 7 11 4 6 1008.6 1006.8 0.0
15/12:30am 28.7 33.5 24.5 78 2.9 WNW 7 9 4 5 1009.0 1007.2 0.0
15/12:00am 28.9 33.7 24.2 76 3.3 NW 6 7 3 4 1009.3 1007.5 0.0
 
Date/Time
EST
Temp
°C
App
Temp
°C
Dew
Point
°C
Rel
Hum
%
Delta-T
°C
Wind Press
QNH
hPa
Press
MSL
hPa
Rain since
9am
mm
Dir  Spd
km/h
Gust
km/h
Spd
kts
Gust
kts
14/11:30pm 29.0 34.3 24.3 76 3.3 WNW 4 7 2 4 1009.3 1007.5 0.0
14/11:00pm 29.4 34.3 24.7 76 3.3 NW 7 9 4 5 1009.3 1007.5 0.0
14/10:30pm 29.6 34.4 24.2 73 3.8 NNW 6 7 3 4 1009.2 1007.4 0.0
14/10:00pm 30.0 34.5 23.7 69 4.4 NNW 6 7 3 4 1008.5 1006.7 0.0
14/09:30pm 29.9 35.5 23.6 69 4.4 CALM 0 0 0 0 1008.2 1006.4 0.0
14/09:00pm 29.9 35.8 24.1 71 4.1 CALM 0 0 0 0 1008.0 1006.2 0.0

Other Formats:

Comma delimited format used in spreadsheet applications
http://www.bom.gov.au/fwo/IDQ60801/IDQ60801.94255.axf

JavaScript Object Notation format (JSON) in row-major order
http://www.bom.gov.au/fwo/IDQ60801/IDQ60801.94255.json